createdAt,value
2023-05-15T00:00:10.796Z,10.03
2023-05-15T00:02:33.886Z,10.17
2023-05-15T00:04:55.642Z,9.43
2023-05-15T00:07:17.567Z,9.03
2023-05-15T00:09:39.133Z,9.37
2023-05-15T00:12:00.468Z,9.90
2023-05-15T00:14:21.656Z,9.53
2023-05-15T00:16:44.351Z,10.03
2023-05-15T00:19:05.647Z,9.13
2023-05-15T00:21:26.884Z,10.07
2023-05-15T00:23:48.625Z,9.60
2023-05-15T00:26:09.951Z,9.90
2023-05-15T00:28:31.668Z,10.70
2023-05-15T00:30:53.069Z,10.20
2023-05-15T00:33:15.678Z,9.73
2023-05-15T00:35:36.999Z,10.77
2023-05-15T00:37:58.265Z,10.53
2023-05-15T00:40:21.511Z,9.50
2023-05-15T00:42:42.920Z,9.80
2023-05-15T00:45:04.300Z,9.67
2023-05-15T00:47:27.338Z,10.00
2023-05-15T00:49:50.474Z,9.77
2023-05-15T00:52:12.317Z,9.53
2023-05-15T00:54:33.604Z,8.97
2023-05-15T00:56:57.316Z,9.40
2023-05-15T00:59:18.508Z,10.00
2023-05-15T01:01:39.814Z,10.20
2023-05-15T01:04:02.100Z,9.97
2023-05-15T01:06:24.983Z,9.50
2023-05-15T01:08:47.843Z,9.90
2023-05-15T01:11:09.802Z,9.67
2023-05-15T01:13:30.747Z,10.17
2023-05-15T01:15:52.021Z,9.93
2023-05-15T01:18:13.488Z,9.17
2023-05-15T01:20:36.643Z,9.00
2023-05-15T01:23:07.194Z,8.97
2023-05-15T01:25:38.895Z,8.17
2023-05-15T01:28:02.918Z,8.27
2023-05-15T01:30:26.189Z,8.53
2023-05-15T01:32:51.398Z,8.30
2023-05-15T01:35:15.361Z,9.27
2023-05-15T01:37:37.976Z,9.07
2023-05-15T01:40:01.634Z,8.43
2023-05-15T01:42:26.334Z,9.47
2023-05-15T01:44:52.646Z,8.83
2023-05-15T01:47:14.842Z,9.27
2023-05-15T01:49:36.792Z,8.70
2023-05-15T01:52:00.672Z,8.53
2023-05-15T01:54:22.086Z,8.63
2023-05-15T01:56:45.303Z,9.10
2023-05-15T01:59:06.870Z,8.77
2023-05-15T02:01:29.970Z,9.33
2023-05-15T02:03:51.208Z,8.80
2023-05-15T02:06:13.250Z,9.47
2023-05-15T02:08:35.709Z,10.40
2023-05-15T02:10:57.938Z,10.20
2023-05-15T02:13:19.121Z,9.33
2023-05-15T02:15:40.411Z,9.70
2023-05-15T02:18:03.338Z,9.40
2023-05-15T02:20:24.771Z,8.83
2023-05-15T02:22:46.031Z,9.30
2023-05-15T02:25:07.722Z,10.03
2023-05-15T02:27:29.497Z,9.27
2023-05-15T02:29:56.005Z,9.93
2023-05-15T02:32:21.185Z,8.97
2023-05-15T02:34:46.763Z,10.10
2023-05-15T02:37:10.258Z,10.20
2023-05-15T02:39:32.587Z,9.23
2023-05-15T02:41:54.281Z,9.77
2023-05-15T02:44:15.971Z,10.00
2023-05-15T02:46:38.787Z,10.27
2023-05-15T02:49:00.006Z,12.30
2023-05-15T02:51:22.465Z,10.30
2023-05-15T02:53:44.223Z,10.40
2023-05-15T02:56:05.519Z,9.87
2023-05-15T02:58:26.591Z,10.37
2023-05-15T03:00:48.034Z,10.67
2023-05-15T03:03:09.368Z,10.63
2023-05-15T03:05:30.733Z,10.10
2023-05-15T03:07:53.942Z,9.87
2023-05-15T03:10:15.125Z,9.13
2023-05-15T03:12:36.500Z,9.00
2023-05-15T03:14:57.376Z,9.67
2023-05-15T03:17:18.768Z,10.00
2023-05-15T03:19:39.867Z,10.00
2023-05-15T03:22:01.217Z,9.67
2023-05-15T03:24:23.954Z,8.50
2023-05-15T03:26:45.154Z,8.63
2023-05-15T03:29:06.427Z,9.30
2023-05-15T03:31:27.586Z,9.03
2023-05-15T03:33:50.077Z,8.77
2023-05-15T03:36:11.444Z,9.20
2023-05-15T03:38:32.872Z,9.07
2023-05-15T03:40:55.395Z,8.90
2023-05-15T03:43:16.585Z,9.10
2023-05-15T03:45:38.151Z,8.63
2023-05-15T03:47:59.497Z,8.20
2023-05-15T03:50:21.509Z,8.80
2023-05-15T03:52:43.127Z,7.77
2023-05-15T03:55:04.860Z,8.93
2023-05-15T03:57:27.941Z,8.47
2023-05-15T03:59:48.962Z,8.73
2023-05-15T04:02:10.582Z,10.07
2023-05-15T04:04:32.129Z,8.67
2023-05-15T04:06:53.367Z,8.97
2023-05-15T04:09:14.732Z,8.97
2023-05-15T04:11:36.725Z,8.53
2023-05-15T04:13:59.845Z,8.87
2023-05-15T04:16:21.407Z,8.60
2023-05-15T04:18:42.602Z,8.73
2023-05-15T04:21:03.877Z,8.50
2023-05-15T04:23:25.307Z,7.80
2023-05-15T04:25:46.897Z,8.07
2023-05-15T04:28:08.010Z,8.60
2023-05-15T04:30:31.198Z,8.53
2023-05-15T04:32:53.340Z,8.30
2023-05-15T04:35:15.485Z,8.03
2023-05-15T04:37:37.126Z,8.10
2023-05-15T04:39:58.570Z,9.17
2023-05-15T04:42:19.596Z,8.50
2023-05-15T04:44:41.674Z,8.00
2023-05-15T04:47:04.503Z,7.90
2023-05-15T04:49:25.669Z,8.70
2023-05-15T04:51:47.089Z,7.73
2023-05-15T04:54:08.654Z,7.60
2023-05-15T04:56:30.112Z,7.27
2023-05-15T04:58:51.569Z,7.50
2023-05-15T05:01:13.186Z,7.60
2023-05-15T05:03:36.205Z,6.60
2023-05-15T05:05:57.748Z,6.93
2023-05-15T05:08:19.508Z,6.50
2023-05-15T05:10:41.003Z,7.23
2023-05-15T05:13:02.429Z,6.93
2023-05-15T05:15:24.008Z,6.80
2023-05-15T05:17:45.074Z,6.27
2023-05-15T05:20:12.990Z,6.90
2023-05-15T05:22:34.525Z,6.90
2023-05-15T05:24:56.327Z,6.27
2023-05-15T05:27:17.510Z,6.10
2023-05-15T05:29:39.928Z,8.93
2023-05-15T05:32:01.337Z,6.67
2023-05-15T05:34:23.161Z,6.97
2023-05-15T05:36:45.614Z,6.37
2023-05-15T05:39:06.881Z,6.67
2023-05-15T05:41:27.891Z,8.37
2023-05-15T05:43:49.229Z,6.97
2023-05-15T05:46:10.569Z,6.87
2023-05-15T05:48:31.991Z,6.87
2023-05-15T05:50:53.369Z,6.83
2023-05-15T05:53:16.282Z,6.90
2023-05-15T05:55:37.488Z,7.57
2023-05-15T05:57:58.707Z,6.70
2023-05-15T06:00:20.666Z,6.87
2023-05-15T06:02:42.013Z,10.27
2023-05-15T06:05:03.672Z,6.30
2023-05-15T06:07:24.745Z,6.43
2023-05-15T06:09:48.838Z,8.53
2023-05-15T06:12:09.970Z,6.47
2023-05-15T06:14:31.394Z,6.23
2023-05-15T06:16:52.888Z,6.40
2023-05-15T06:19:13.823Z,6.60
2023-05-15T06:21:35.107Z,6.40
2023-05-15T06:23:56.470Z,6.67
2023-05-15T06:26:19.324Z,9.63
2023-05-15T06:28:40.813Z,6.53
2023-05-15T06:31:02.265Z,6.43
2023-05-15T06:33:23.565Z,7.23
2023-05-15T06:35:45.063Z,6.33
2023-05-15T06:38:06.558Z,6.93
2023-05-15T06:40:28.269Z,6.90
2023-05-15T06:42:51.283Z,6.43
2023-05-15T06:45:13.072Z,6.30
2023-05-15T06:47:34.222Z,7.57
2023-05-15T06:49:55.426Z,6.83
2023-05-15T06:52:16.941Z,6.20
2023-05-15T06:54:40.437Z,6.23
2023-05-15T06:57:01.766Z,6.40
2023-05-15T06:59:24.356Z,6.63
2023-05-15T07:01:45.791Z,7.00
2023-05-15T07:04:07.872Z,6.40
2023-05-15T07:06:31.369Z,6.03
2023-05-15T07:08:52.767Z,7.20
2023-05-15T07:11:13.977Z,6.97
2023-05-15T07:13:36.476Z,7.17
2023-05-15T07:15:59.201Z,6.97
2023-05-15T07:18:20.215Z,6.10
2023-05-15T07:20:41.447Z,7.37
2023-05-15T07:23:02.640Z,7.50
2023-05-15T07:25:24.105Z,7.00
2023-05-15T07:27:45.795Z,6.93
2023-05-15T07:30:07.781Z,6.80
2023-05-15T07:32:30.306Z,7.47
2023-05-15T07:34:51.821Z,7.10
2023-05-15T07:37:14.469Z,7.50
2023-05-15T07:39:36.530Z,7.80
2023-05-15T07:41:57.797Z,9.23
2023-05-15T07:44:19.086Z,8.27
2023-05-15T07:46:40.573Z,8.20
2023-05-15T07:49:03.166Z,8.00
2023-05-15T07:51:24.349Z,8.50
2023-05-15T07:53:45.703Z,8.33
2023-05-15T07:56:06.883Z,8.93
2023-05-15T07:58:28.634Z,8.20
2023-05-15T08:00:49.915Z,8.73
2023-05-15T08:03:11.828Z,8.27
2023-05-15T08:05:34.425Z,8.30
2023-05-15T08:07:56.108Z,8.83
2023-05-15T08:10:17.192Z,8.30
2023-05-15T08:12:38.594Z,8.43
2023-05-15T08:14:59.951Z,8.73
2023-05-15T08:17:21.760Z,7.87
2023-05-15T08:19:43.116Z,8.87
2023-05-15T08:22:06.041Z,7.47
2023-05-15T08:24:27.204Z,7.70
2023-05-15T08:26:48.359Z,8.37
2023-05-15T08:29:09.544Z,7.47
2023-05-15T08:31:30.900Z,7.40
2023-05-15T08:33:52.413Z,7.07
2023-05-15T08:36:14.256Z,8.20
2023-05-15T08:38:37.117Z,8.30
2023-05-15T08:40:59.328Z,7.43
2023-05-15T08:43:22.248Z,7.67
2023-05-15T08:45:44.079Z,7.73
2023-05-15T08:48:08.339Z,8.10
2023-05-15T08:50:30.388Z,7.40
2023-05-15T08:52:52.435Z,7.80
2023-05-15T08:55:15.081Z,7.20
2023-05-15T08:57:37.023Z,7.77
2023-05-15T08:59:58.770Z,8.07
2023-05-15T09:02:20.598Z,7.20
2023-05-15T09:04:42.289Z,7.23
2023-05-15T09:07:04.125Z,7.43
2023-05-15T09:09:25.743Z,6.90
2023-05-15T09:11:49.294Z,7.73
2023-05-15T09:14:10.291Z,6.70
2023-05-15T09:16:31.681Z,7.73
2023-05-15T09:18:53.437Z,7.50
2023-05-15T09:21:24.415Z,6.70
2023-05-15T09:23:45.833Z,6.33
2023-05-15T09:26:13.121Z,6.37
2023-05-15T09:28:36.065Z,5.87
2023-05-15T09:31:01.577Z,6.27
2023-05-15T09:33:28.184Z,5.53
2023-05-15T09:35:49.426Z,5.90
2023-05-15T09:38:11.401Z,5.30
2023-05-15T09:40:33.026Z,5.67
2023-05-15T09:42:54.254Z,5.47
2023-05-15T09:45:19.296Z,7.53
2023-05-15T09:47:40.839Z,6.17
2023-05-15T09:50:02.238Z,7.13
2023-05-15T09:52:23.740Z,5.23
2023-05-15T09:54:48.784Z,5.90
2023-05-15T09:57:12.380Z,5.60
2023-05-15T09:59:33.511Z,5.57
2023-05-15T10:01:56.215Z,5.70
2023-05-15T10:04:17.715Z,6.20
2023-05-15T10:06:41.239Z,5.73
2023-05-15T10:09:04.278Z,5.07
2023-05-15T10:11:25.762Z,5.60
2023-05-15T10:13:46.834Z,5.40
2023-05-15T10:16:08.436Z,5.20
2023-05-15T10:18:31.588Z,5.40
2023-05-15T10:20:52.796Z,4.73
2023-05-15T10:23:14.838Z,4.97
2023-05-15T10:25:40.221Z,4.80
2023-05-15T10:28:02.088Z,4.37
2023-05-15T10:30:23.986Z,4.40
2023-05-15T10:32:45.786Z,4.73
2023-05-15T10:35:10.512Z,5.07
2023-05-15T10:37:31.944Z,5.20
2023-05-15T10:39:55.917Z,5.00
2023-05-15T10:42:18.026Z,4.83
2023-05-15T10:44:39.917Z,4.83
2023-05-15T10:47:01.914Z,5.10
2023-05-15T10:49:23.123Z,5.50
2023-05-15T10:51:46.441Z,5.53
2023-05-15T10:54:07.681Z,5.57
2023-05-15T10:56:31.004Z,4.60
2023-05-15T10:58:54.330Z,4.60
2023-05-15T11:01:26.218Z,4.97
2023-05-15T11:03:49.683Z,4.80
2023-05-15T11:06:12.878Z,5.30
2023-05-15T11:08:36.352Z,5.00
2023-05-15T11:10:57.627Z,4.50
2023-05-15T11:13:18.803Z,5.93
2023-05-15T11:15:44.743Z,4.63
2023-05-15T11:18:06.783Z,4.47
2023-05-15T11:20:35.072Z,4.27
2023-05-15T11:23:00.763Z,4.60
2023-05-15T11:25:29.812Z,8.67
2023-05-15T11:27:56.075Z,3.87
2023-05-15T11:30:20.591Z,3.80
2023-05-15T11:32:42.777Z,4.40
2023-05-15T11:35:04.232Z,3.90
2023-05-15T11:37:25.541Z,5.10
2023-05-15T11:39:47.479Z,3.60
2023-05-15T11:42:13.548Z,3.57
2023-05-15T11:44:34.949Z,3.80
2023-05-15T11:46:56.548Z,4.97
2023-05-15T11:49:19.397Z,3.53
2023-05-15T11:51:43.339Z,4.17
2023-05-15T11:54:06.938Z,4.40
2023-05-15T11:56:29.480Z,4.63
2023-05-15T11:58:52.715Z,4.13
2023-05-15T12:01:13.997Z,3.97
2023-05-15T12:03:36.361Z,4.00
2023-05-15T12:06:00.278Z,3.80
2023-05-15T12:08:22.339Z,4.27
2023-05-15T12:10:44.200Z,3.73
2023-05-15T12:13:05.371Z,4.07
2023-05-15T12:15:28.002Z,4.13
2023-05-15T12:17:51.812Z,4.03
2023-05-15T12:20:18.868Z,4.07
2023-05-15T12:22:40.445Z,3.80
2023-05-15T12:25:01.586Z,4.10
2023-05-15T12:27:23.015Z,3.97
2023-05-15T12:29:44.400Z,3.90
2023-05-15T12:32:07.791Z,3.57
2023-05-15T12:34:29.702Z,4.47
2023-05-15T12:36:51.231Z,3.50
2023-05-15T12:39:12.910Z,3.57
2023-05-15T12:41:34.394Z,3.50
2023-05-15T12:43:55.448Z,3.57
2023-05-15T12:46:16.881Z,3.60
2023-05-15T12:48:39.611Z,3.70
2023-05-15T12:51:05.774Z,3.93
2023-05-15T12:53:26.939Z,3.67
2023-05-15T12:55:48.863Z,3.57
2023-05-15T12:58:11.125Z,3.47
2023-05-15T13:00:32.907Z,3.83
2023-05-15T13:02:55.056Z,3.70
2023-05-15T13:05:18.432Z,3.63
2023-05-15T13:07:39.768Z,3.80
2023-05-15T13:10:06.049Z,3.70
2023-05-15T13:12:40.140Z,3.47
2023-05-15T13:15:01.249Z,3.70
2023-05-15T13:17:23.538Z,5.87
2023-05-15T13:19:44.610Z,4.13
2023-05-15T13:22:05.964Z,3.90
2023-05-15T13:24:27.140Z,4.20
2023-05-15T13:26:48.270Z,4.20
2023-05-15T13:29:10.829Z,4.83
2023-05-15T13:31:32.604Z,4.03
2023-05-15T13:33:53.846Z,4.07
2023-05-15T13:36:15.197Z,4.27
2023-05-15T13:38:36.696Z,4.50
2023-05-15T13:40:58.041Z,4.07
2023-05-15T13:43:19.356Z,4.13
2023-05-15T13:45:42.117Z,3.80
2023-05-15T13:48:04.247Z,4.23
2023-05-15T13:50:25.612Z,4.30
2023-05-15T13:52:47.585Z,4.57
2023-05-15T13:55:09.681Z,4.07
2023-05-15T13:57:31.311Z,3.93
2023-05-15T13:59:52.810Z,3.80
2023-05-15T14:02:15.469Z,4.43
2023-05-15T14:04:37.293Z,4.00
2023-05-15T14:06:58.638Z,3.73
2023-05-15T14:09:20.228Z,3.67
2023-05-15T14:11:41.567Z,4.03
2023-05-15T14:14:03.920Z,4.53
2023-05-15T14:16:25.233Z,5.17
2023-05-15T14:18:47.966Z,3.60
2023-05-15T14:21:09.297Z,3.80
2023-05-15T14:23:30.792Z,3.67
2023-05-15T14:25:52.131Z,3.70
2023-05-15T14:28:13.593Z,3.50
2023-05-15T14:30:35.149Z,4.17
2023-05-15T14:32:56.228Z,3.80
2023-05-15T14:35:18.739Z,3.93
2023-05-15T14:37:39.975Z,3.53
2023-05-15T14:40:01.410Z,4.30
2023-05-15T14:42:22.870Z,4.43
2023-05-15T14:44:44.163Z,4.13
2023-05-15T14:47:06.354Z,4.27
2023-05-15T14:49:27.408Z,4.33
2023-05-15T14:51:50.104Z,3.80
2023-05-15T14:54:11.359Z,4.03
2023-05-15T14:56:32.767Z,3.93
2023-05-15T14:58:54.240Z,4.10
2023-05-15T15:01:15.848Z,3.60
2023-05-15T15:03:37.712Z,3.80
2023-05-15T15:05:58.867Z,8.93
2023-05-15T15:08:21.407Z,3.83
2023-05-15T15:10:43.407Z,4.60
2023-05-15T15:13:04.806Z,5.03
2023-05-15T15:15:26.776Z,5.00
2023-05-15T15:17:48.281Z,4.80
2023-05-15T15:20:10.522Z,4.40
2023-05-15T15:22:31.895Z,4.43
2023-05-15T15:24:55.067Z,4.50
2023-05-15T15:27:16.398Z,3.70
2023-05-15T15:29:37.741Z,4.10
2023-05-15T15:31:58.951Z,3.77
2023-05-15T15:34:20.537Z,3.80
2023-05-15T15:36:43.487Z,4.00
2023-05-15T15:39:04.982Z,4.00
2023-05-15T15:41:27.231Z,4.23
2023-05-15T15:43:48.645Z,4.47
2023-05-15T15:46:09.838Z,5.97
2023-05-15T15:48:31.253Z,4.63
2023-05-15T15:50:53.261Z,5.10
2023-05-15T15:53:14.806Z,4.40
2023-05-15T15:55:36.140Z,5.47
2023-05-15T15:57:58.776Z,4.77
2023-05-15T16:00:20.219Z,5.20
2023-05-15T16:02:41.700Z,5.10
2023-05-15T16:05:03.501Z,5.77
2023-05-15T16:07:24.697Z,6.43
2023-05-15T16:09:49.318Z,5.20
2023-05-15T16:12:14.940Z,5.20
2023-05-15T16:14:37.696Z,4.73
2023-05-15T16:16:59.179Z,4.90
2023-05-15T16:19:20.516Z,4.20
2023-05-15T16:21:41.684Z,4.53
2023-05-15T16:24:03.090Z,4.03
2023-05-15T16:26:24.312Z,3.70
2023-05-15T16:28:45.528Z,4.07
2023-05-15T16:31:08.487Z,4.00
2023-05-15T16:33:30.471Z,3.70
2023-05-15T16:35:52.396Z,5.20
2023-05-15T16:38:13.833Z,4.27
2023-05-15T16:40:34.842Z,4.30
2023-05-15T16:42:56.245Z,4.20
2023-05-15T16:45:17.424Z,4.70
2023-05-15T16:47:41.241Z,4.27
2023-05-15T16:50:03.517Z,4.80
2023-05-15T16:52:24.646Z,5.40
2023-05-15T16:54:46.112Z,5.17
2023-05-15T16:57:07.401Z,4.33
2023-05-15T16:59:28.738Z,5.07
2023-05-15T17:01:50.874Z,5.30
2023-05-15T17:04:13.272Z,4.90
2023-05-15T17:06:34.400Z,5.40
2023-05-15T17:08:56.019Z,5.80
2023-05-15T17:11:16.909Z,6.17
2023-05-15T17:13:38.349Z,5.50
2023-05-15T17:15:59.670Z,5.87
2023-05-15T17:18:21.255Z,5.07
2023-05-15T17:20:44.055Z,6.13
2023-05-15T17:23:05.417Z,5.17
2023-05-15T17:25:27.130Z,5.93
2023-05-15T17:27:48.262Z,5.00
2023-05-15T17:30:10.116Z,5.70
2023-05-15T17:32:31.417Z,5.20
2023-05-15T17:34:52.742Z,6.90
2023-05-15T17:37:15.700Z,5.80
2023-05-15T17:39:37.259Z,5.93
2023-05-15T17:41:58.463Z,5.83
2023-05-15T17:44:19.897Z,5.80
2023-05-15T17:46:40.911Z,5.97
2023-05-15T17:49:02.111Z,5.90
2023-05-15T17:51:23.311Z,5.97
2023-05-15T17:53:45.841Z,5.63
2023-05-15T17:56:07.316Z,5.80
2023-05-15T17:58:28.337Z,5.70
2023-05-15T18:00:49.774Z,6.57
2023-05-15T18:03:11.415Z,5.90
2023-05-15T18:05:32.681Z,5.70
2023-05-15T18:07:56.269Z,5.60
2023-05-15T18:10:18.824Z,5.83
2023-05-15T18:12:39.761Z,7.23
2023-05-15T18:15:01.239Z,6.43
2023-05-15T18:17:22.472Z,6.70
2023-05-15T18:19:44.775Z,7.20
2023-05-15T18:22:06.249Z,7.53
2023-05-15T18:24:27.314Z,7.10
2023-05-15T18:26:49.912Z,7.10
2023-05-15T18:29:11.142Z,7.20
2023-05-15T18:31:32.677Z,7.20
2023-05-15T18:33:54.451Z,6.80
2023-05-15T18:36:15.990Z,7.03
2023-05-15T18:38:37.359Z,7.40
2023-05-15T18:40:58.659Z,7.57
2023-05-15T18:43:21.574Z,8.10
2023-05-15T18:45:42.715Z,7.87
2023-05-15T18:48:04.304Z,8.10
2023-05-15T18:50:25.419Z,10.03
2023-05-15T18:52:46.730Z,11.20
2023-05-15T18:55:09.668Z,9.33
2023-05-15T18:57:30.625Z,8.07
2023-05-15T18:59:53.153Z,7.60
2023-05-15T19:02:14.560Z,10.77
2023-05-15T19:04:35.951Z,8.00
2023-05-15T19:06:57.229Z,8.07
2023-05-15T19:09:19.447Z,7.47
2023-05-15T19:11:41.178Z,7.60
2023-05-15T19:14:02.395Z,8.57
2023-05-15T19:16:28.397Z,8.43
2023-05-15T19:18:49.537Z,8.90
2023-05-15T19:21:10.603Z,8.90
2023-05-15T19:23:32.065Z,9.63
2023-05-15T19:25:53.282Z,9.57
2023-05-15T19:28:15.050Z,8.63
2023-05-15T19:30:36.197Z,9.87
2023-05-15T19:32:58.832Z,9.27
2023-05-15T19:35:20.118Z,10.10
2023-05-15T19:37:41.468Z,9.67
2023-05-15T19:40:04.273Z,9.77
2023-05-15T19:42:25.989Z,9.57
2023-05-15T19:44:47.091Z,9.83
2023-05-15T19:47:09.693Z,9.67
2023-05-15T19:49:32.079Z,9.50
2023-05-15T19:51:53.126Z,8.87
2023-05-15T19:54:15.977Z,9.33
2023-05-15T19:56:37.217Z,9.83
2023-05-15T19:58:59.772Z,9.47
2023-05-15T20:01:21.346Z,9.80
2023-05-15T20:03:43.153Z,9.60
2023-05-15T20:06:06.191Z,9.77
2023-05-15T20:08:27.902Z,9.97
2023-05-15T20:10:51.331Z,9.07
2023-05-15T20:13:12.548Z,9.67
2023-05-15T20:15:34.974Z,10.23
2023-05-15T20:17:56.204Z,10.03
2023-05-15T20:20:17.740Z,10.50
2023-05-15T20:22:40.452Z,10.40
2023-05-15T20:25:01.342Z,10.63
2023-05-15T20:27:22.811Z,10.27
2023-05-15T20:29:43.843Z,10.00
2023-05-15T20:32:05.528Z,10.80
2023-05-15T20:34:26.604Z,11.30
2023-05-15T20:36:47.905Z,10.87
2023-05-15T20:39:10.628Z,11.17
2023-05-15T20:41:32.589Z,11.47
2023-05-15T20:43:53.819Z,11.20
2023-05-15T20:46:15.123Z,9.47
2023-05-15T20:48:36.745Z,10.47
2023-05-15T20:50:57.908Z,10.03
2023-05-15T20:53:19.127Z,11.07
2023-05-15T20:55:41.959Z,11.10
2023-05-15T20:58:03.053Z,11.80
2023-05-15T21:00:24.514Z,12.13
2023-05-15T21:02:46.005Z,13.53
2023-05-15T21:05:08.540Z,10.73
2023-05-15T21:07:29.916Z,10.07
2023-05-15T21:09:51.252Z,11.10
2023-05-15T21:12:14.233Z,11.50
2023-05-15T21:14:35.546Z,10.73
2023-05-15T21:16:56.974Z,9.87
2023-05-15T21:19:18.219Z,10.60
2023-05-15T21:21:39.470Z,10.37
2023-05-15T21:24:02.336Z,11.67
2023-05-15T21:26:23.560Z,11.43
2023-05-15T21:28:46.276Z,11.10
2023-05-15T21:31:08.245Z,10.67
2023-05-15T21:33:30.256Z,9.80
2023-05-15T21:35:52.604Z,9.80
2023-05-15T21:38:13.979Z,10.50
2023-05-15T21:40:35.611Z,11.20
2023-05-15T21:42:56.704Z,11.63
2023-05-15T21:45:19.525Z,11.37
2023-05-15T21:47:40.871Z,11.10
2023-05-15T21:50:02.230Z,14.00
2023-05-15T21:52:23.612Z,12.07
2023-05-15T21:54:44.958Z,11.37
2023-05-15T21:57:06.261Z,11.33
2023-05-15T21:59:27.561Z,12.10
2023-05-15T22:01:50.382Z,11.43
2023-05-15T22:04:11.616Z,10.80
2023-05-15T22:06:32.963Z,11.90
2023-05-15T22:08:54.231Z,12.17
2023-05-15T22:11:16.511Z,11.50
2023-05-15T22:13:37.865Z,11.73
2023-05-15T22:15:59.320Z,10.90
2023-05-15T22:18:23.155Z,10.70
2023-05-15T22:20:45.165Z,10.73
2023-05-15T22:23:07.256Z,10.40
2023-05-15T22:25:28.663Z,11.43
2023-05-15T22:27:50.233Z,11.10
2023-05-15T22:30:11.822Z,11.17
2023-05-15T22:32:33.079Z,11.10
2023-05-15T22:34:56.060Z,11.03
2023-05-15T22:37:17.287Z,11.60
2023-05-15T22:39:38.287Z,11.90
2023-05-15T22:41:59.606Z,12.43
2023-05-15T22:44:20.832Z,12.93
2023-05-15T22:46:42.442Z,13.03
2023-05-15T22:49:04.359Z,12.57
2023-05-15T22:51:27.012Z,10.97
2023-05-15T22:53:48.292Z,11.80
2023-05-15T22:56:09.700Z,11.70
2023-05-15T22:58:31.527Z,11.13
2023-05-15T23:00:53.049Z,11.40
2023-05-15T23:03:14.316Z,10.83
2023-05-15T23:05:35.701Z,11.10
2023-05-15T23:07:58.195Z,11.30
2023-05-15T23:10:19.232Z,11.00
2023-05-15T23:12:40.633Z,11.33
2023-05-15T23:15:01.662Z,10.97
2023-05-15T23:17:24.576Z,11.60
2023-05-15T23:19:47.761Z,11.20
2023-05-15T23:22:09.225Z,11.30
2023-05-15T23:24:31.979Z,12.07
2023-05-15T23:26:53.488Z,11.37
2023-05-15T23:29:14.857Z,12.40
2023-05-15T23:31:36.400Z,11.47
2023-05-15T23:33:57.611Z,12.00
2023-05-15T23:36:19.340Z,11.53
2023-05-15T23:38:40.931Z,11.13
2023-05-15T23:41:03.707Z,11.57
2023-05-15T23:43:24.936Z,12.00
2023-05-15T23:45:46.406Z,11.73
2023-05-15T23:48:08.032Z,11.60
2023-05-15T23:50:29.997Z,11.67
2023-05-15T23:52:51.210Z,12.10
2023-05-15T23:55:12.952Z,12.07
2023-05-15T23:57:35.656Z,12.63
2023-05-15T23:59:57.414Z,12.50
